createdAt,value
2023-04-30T00:01:43.440Z,52.30
2023-04-30T00:04:14.449Z,51.40
2023-04-30T00:06:43.462Z,53.00
2023-04-30T00:09:12.571Z,44.53
2023-04-30T00:11:41.617Z,41.97
2023-04-30T00:14:10.845Z,39.77
2023-04-30T00:16:39.855Z,40.77
2023-04-30T00:19:09.268Z,44.47
2023-04-30T00:21:39.997Z,46.17
2023-04-30T00:24:08.846Z,42.63
2023-04-30T00:26:37.882Z,52.87
2023-04-30T00:29:07.194Z,45.30
2023-04-30T00:31:36.394Z,41.50
2023-04-30T00:34:05.485Z,33.40
2023-04-30T00:36:34.351Z,36.80
2023-04-30T00:39:13.122Z,43.17
2023-04-30T00:41:42.843Z,39.67
2023-04-30T00:44:12.030Z,36.83
2023-04-30T00:46:41.290Z,41.00
2023-04-30T00:49:10.646Z,32.43
2023-04-30T00:51:42.852Z,31.40
2023-04-30T00:54:14.128Z,37.20
2023-04-30T00:56:43.486Z,37.13
2023-04-30T00:59:13.274Z,39.17
2023-04-30T01:01:43.411Z,44.70
2023-04-30T01:04:13.835Z,43.40
2023-04-30T01:06:43.550Z,42.37
2023-04-30T01:09:14.260Z,43.47
2023-04-30T01:11:56.493Z,40.40
2023-04-30T01:14:30.237Z,43.80
2023-04-30T01:17:07.126Z,38.47
2023-04-30T01:19:42.976Z,39.43
2023-04-30T01:22:26.092Z,42.80
2023-04-30T01:25:33.043Z,38.63
2023-04-30T01:28:10.918Z,38.83
2023-04-30T01:30:45.000Z,35.73
2023-04-30T01:33:14.348Z,35.73
2023-04-30T01:36:10.035Z,36.57
2023-04-30T01:38:52.635Z,33.67
2023-04-30T01:41:31.140Z,33.77
2023-04-30T01:44:15.210Z,32.83
2023-04-30T01:46:50.209Z,31.70
2023-04-30T01:49:32.010Z,32.13
2023-04-30T01:52:08.517Z,31.17
2023-04-30T01:54:46.877Z,32.63
2023-04-30T01:57:31.197Z,29.37
2023-04-30T02:00:01.891Z,30.77
2023-04-30T02:02:31.093Z,31.67
2023-04-30T02:05:00.164Z,32.37
2023-04-30T02:07:41.673Z,32.23
2023-04-30T02:10:12.107Z,30.97
2023-04-30T02:12:41.442Z,30.90
2023-04-30T02:15:12.722Z,32.83
2023-04-30T02:17:43.429Z,34.57
2023-04-30T02:20:13.693Z,33.70
2023-04-30T02:22:42.808Z,32.97
2023-04-30T02:25:12.980Z,32.03
2023-04-30T02:27:42.850Z,39.73
2023-04-30T02:30:13.686Z,31.77
2023-04-30T02:32:42.939Z,33.20
2023-04-30T02:35:12.237Z,36.27
2023-04-30T02:37:41.298Z,32.17
2023-04-30T02:40:11.239Z,32.07
2023-04-30T02:42:40.478Z,40.80
2023-04-30T02:45:10.298Z,35.30
2023-04-30T02:47:40.824Z,36.37
2023-04-30T02:50:28.252Z,36.20
2023-04-30T02:52:57.597Z,37.27
2023-04-30T02:55:26.667Z,33.60
2023-04-30T02:57:56.416Z,38.93
2023-04-30T03:00:26.769Z,33.87
2023-04-30T03:02:57.427Z,41.00
2023-04-30T03:05:26.934Z,38.10
2023-04-30T03:07:56.250Z,40.07
2023-04-30T03:10:25.149Z,38.47
2023-04-30T03:12:54.581Z,47.23
2023-04-30T03:15:23.589Z,35.47
2023-04-30T03:17:52.754Z,40.50
2023-04-30T03:20:23.729Z,42.43
2023-04-30T03:23:11.366Z,46.40
2023-04-30T03:25:40.423Z,49.50
2023-04-30T03:28:09.518Z,44.03
2023-04-30T03:30:38.473Z,75.80
2023-04-30T03:33:08.006Z,47.60
2023-04-30T03:35:57.111Z,48.17
2023-04-30T03:38:26.179Z,52.03
2023-04-30T03:40:55.354Z,46.87
2023-04-30T03:43:24.267Z,46.37
2023-04-30T03:45:53.312Z,42.27
2023-04-30T03:48:22.854Z,36.50
2023-04-30T03:50:51.811Z,41.07
2023-04-30T03:53:22.284Z,44.77
2023-04-30T03:55:51.650Z,63.70
2023-04-30T03:58:20.680Z,51.43
2023-04-30T04:00:49.865Z,41.77
2023-04-30T04:03:19.124Z,43.37
2023-04-30T04:05:48.382Z,40.20
2023-04-30T04:08:17.332Z,38.57
2023-04-30T04:10:47.875Z,34.77
2023-04-30T04:13:16.893Z,34.17
2023-04-30T04:15:46.184Z,33.90
2023-04-30T04:18:15.072Z,30.97
2023-04-30T04:20:44.287Z,36.37
2023-04-30T04:23:13.269Z,51.47
2023-04-30T04:25:44.580Z,53.97
2023-04-30T04:28:15.316Z,42.20
2023-04-30T04:30:45.070Z,33.93
2023-04-30T04:33:14.910Z,37.83
2023-04-30T04:35:44.086Z,35.20
2023-04-30T04:38:13.269Z,38.13
2023-04-30T04:40:42.521Z,38.47
2023-04-30T04:43:12.588Z,50.57
2023-04-30T04:45:43.177Z,45.70
2023-04-30T04:48:12.669Z,37.40
2023-04-30T04:50:41.749Z,32.33
2023-04-30T04:53:10.674Z,29.17
2023-04-30T04:55:40.353Z,28.13
2023-04-30T04:58:09.268Z,37.17
2023-04-30T05:00:38.258Z,36.67
2023-04-30T05:03:10.661Z,34.87
2023-04-30T05:05:39.951Z,33.97
2023-04-30T05:08:08.857Z,38.60
2023-04-30T05:10:37.973Z,35.13
2023-04-30T05:13:06.843Z,39.90
2023-04-30T05:15:35.869Z,55.03
2023-04-30T05:18:05.143Z,43.37
2023-04-30T05:20:35.696Z,39.90
2023-04-30T05:23:05.039Z,40.40
2023-04-30T05:25:34.098Z,39.10
2023-04-30T05:28:03.533Z,39.37
2023-04-30T05:30:32.627Z,41.07
2023-04-30T05:33:01.768Z,42.70
2023-04-30T05:35:30.830Z,44.60
2023-04-30T05:38:01.362Z,39.07
2023-04-30T05:40:30.598Z,34.47
2023-04-30T05:42:59.497Z,37.33
2023-04-30T05:45:28.601Z,54.50
2023-04-30T05:47:57.661Z,41.90
2023-04-30T05:50:26.639Z,41.73
2023-04-30T05:52:55.572Z,39.03
2023-04-30T05:55:25.921Z,41.10
2023-04-30T05:58:02.180Z,52.70
2023-04-30T06:00:31.392Z,34.60
2023-04-30T06:03:00.589Z,31.27
2023-04-30T06:05:29.638Z,30.17
2023-04-30T06:07:58.794Z,57.03
2023-04-30T06:10:29.259Z,32.87
2023-04-30T06:12:58.291Z,27.63
2023-04-30T06:15:27.188Z,32.80
2023-04-30T06:17:56.225Z,31.33
2023-04-30T06:20:25.339Z,37.07
2023-04-30T06:23:01.511Z,36.77
2023-04-30T06:25:32.101Z,32.10
2023-04-30T06:28:02.066Z,29.67
2023-04-30T06:30:31.664Z,26.30
2023-04-30T06:33:00.640Z,28.00
2023-04-30T06:35:29.673Z,28.47
2023-04-30T06:37:58.924Z,26.37
2023-04-30T06:40:27.930Z,31.10
2023-04-30T06:42:58.460Z,30.73
2023-04-30T06:45:27.517Z,41.47
2023-04-30T06:47:56.544Z,33.27
2023-04-30T06:50:26.654Z,29.50
2023-04-30T06:52:55.723Z,26.00
2023-04-30T06:55:24.896Z,26.37
2023-04-30T06:57:55.532Z,28.73
2023-04-30T07:00:28.476Z,27.50
2023-04-30T07:03:00.948Z,24.10
2023-04-30T07:05:30.293Z,28.33
2023-04-30T07:07:59.441Z,24.50
2023-04-30T07:10:28.487Z,25.87
2023-04-30T07:13:16.749Z,30.70
2023-04-30T07:15:47.298Z,27.03
2023-04-30T07:18:16.600Z,21.73
2023-04-30T07:20:46.012Z,25.20
2023-04-30T07:23:15.081Z,26.00
2023-04-30T07:25:44.341Z,24.67
2023-04-30T07:28:13.296Z,25.17
2023-04-30T07:30:43.175Z,19.73
2023-04-30T07:33:14.537Z,24.00
2023-04-30T07:35:43.488Z,23.90
2023-04-30T07:38:15.240Z,26.50
2023-04-30T07:40:44.435Z,26.63
2023-04-30T07:43:13.364Z,21.43
2023-04-30T07:45:42.610Z,18.63
2023-04-30T07:48:11.562Z,24.73
2023-04-30T07:50:41.848Z,19.00
2023-04-30T07:53:11.169Z,24.27
2023-04-30T07:55:40.111Z,24.63
2023-04-30T07:58:09.334Z,21.60
2023-04-30T08:00:38.486Z,25.30
2023-04-30T08:03:07.527Z,21.63
2023-04-30T08:05:36.650Z,22.80
2023-04-30T08:08:07.668Z,23.80
2023-04-30T08:10:37.553Z,22.97
2023-04-30T08:13:06.692Z,22.83
2023-04-30T08:15:35.938Z,23.73
2023-04-30T08:18:05.542Z,21.00
2023-04-30T08:20:36.048Z,20.07
2023-04-30T08:23:07.873Z,21.07
2023-04-30T08:25:56.295Z,18.30
2023-04-30T08:28:25.426Z,19.37
2023-04-30T08:30:54.443Z,15.27
2023-04-30T08:33:23.419Z,16.70
2023-04-30T08:35:52.902Z,15.27
2023-04-30T08:38:41.694Z,12.80
2023-04-30T08:41:14.541Z,9.20
2023-04-30T08:43:45.488Z,10.40
2023-04-30T08:46:16.934Z,14.33
2023-04-30T08:48:48.489Z,8.60
2023-04-30T08:51:17.687Z,11.33
2023-04-30T08:53:50.966Z,15.13
2023-04-30T08:56:20.411Z,13.60
2023-04-30T08:58:50.415Z,11.53
2023-04-30T09:01:20.135Z,15.40
2023-04-30T09:03:49.503Z,13.93
2023-04-30T09:06:18.915Z,12.73
2023-04-30T09:08:50.678Z,10.73
2023-04-30T09:11:24.129Z,17.93
2023-04-30T09:14:11.805Z,35.43
2023-04-30T09:16:53.023Z,12.10
2023-04-30T09:19:26.194Z,11.17
2023-04-30T09:21:56.426Z,10.00
2023-04-30T09:24:27.022Z,8.13
2023-04-30T09:26:57.314Z,11.83
2023-04-30T09:29:38.563Z,9.27
2023-04-30T09:32:10.748Z,8.00
2023-04-30T09:34:39.816Z,11.13
2023-04-30T09:37:08.900Z,9.27
2023-04-30T09:39:49.690Z,9.97
2023-04-30T09:42:19.979Z,11.00
2023-04-30T09:44:49.261Z,11.90
2023-04-30T09:47:19.783Z,12.57
2023-04-30T09:49:52.702Z,8.20
2023-04-30T09:52:22.780Z,11.43
2023-04-30T09:54:53.412Z,5.83
2023-04-30T09:57:25.504Z,7.93
2023-04-30T09:59:55.209Z,7.47
2023-04-30T10:02:25.007Z,16.13
2023-04-30T10:04:58.402Z,9.23
2023-04-30T10:07:33.066Z,6.13
2023-04-30T10:10:09.149Z,15.63
2023-04-30T10:13:02.038Z,6.57
2023-04-30T10:15:39.539Z,5.40
2023-04-30T10:18:16.568Z,5.27
2023-04-30T10:20:48.853Z,13.30
2023-04-30T10:23:18.799Z,13.27
2023-04-30T10:25:49.941Z,7.37
2023-04-30T10:28:18.985Z,7.43
2023-04-30T10:30:48.448Z,8.27
2023-04-30T10:33:30.050Z,7.70
2023-04-30T10:36:00.971Z,7.93
2023-04-30T10:38:32.650Z,7.73
2023-04-30T10:41:04.205Z,9.50
2023-04-30T10:43:35.566Z,12.67
2023-04-30T10:46:05.192Z,9.63
2023-04-30T10:48:36.449Z,7.07
2023-04-30T10:51:06.053Z,10.73
2023-04-30T10:53:40.427Z,9.40
2023-04-30T10:56:11.374Z,7.87
2023-04-30T10:58:41.502Z,14.30
2023-04-30T11:01:13.068Z,7.23
2023-04-30T11:03:43.708Z,11.07
2023-04-30T11:06:14.053Z,7.20
2023-04-30T11:08:46.060Z,12.00
2023-04-30T11:11:24.188Z,9.90
2023-04-30T11:14:02.944Z,9.03
2023-04-30T11:16:32.679Z,11.00
2023-04-30T11:19:11.324Z,6.07
2023-04-30T11:21:42.852Z,7.23
2023-04-30T11:24:12.026Z,7.97
2023-04-30T11:27:07.219Z,11.27
2023-04-30T11:29:36.569Z,10.33
2023-04-30T11:32:06.868Z,8.00
2023-04-30T11:34:36.873Z,7.30
2023-04-30T11:37:32.903Z,7.23
2023-04-30T11:40:04.130Z,7.37
2023-04-30T11:42:53.266Z,9.97
2023-04-30T11:45:23.617Z,7.23
2023-04-30T11:47:53.813Z,30.43
2023-04-30T11:50:29.442Z,16.67
2023-04-30T11:53:02.203Z,19.80
2023-04-30T11:55:31.459Z,17.87
2023-04-30T11:58:01.911Z,10.10
2023-04-30T12:00:33.394Z,19.17
2023-04-30T12:03:04.147Z,17.93
2023-04-30T12:05:33.390Z,17.73
2023-04-30T12:08:06.828Z,13.97
2023-04-30T12:10:36.530Z,10.47
2023-04-30T12:13:07.299Z,10.20
2023-04-30T12:15:37.323Z,6.63
2023-04-30T12:18:15.631Z,8.77
2023-04-30T12:20:44.953Z,21.63
2023-04-30T12:23:14.093Z,10.33
2023-04-30T12:25:44.241Z,6.63
2023-04-30T12:28:15.044Z,7.93
2023-04-30T12:30:45.007Z,8.27
2023-04-30T12:33:14.246Z,12.07
2023-04-30T12:35:45.769Z,14.50
2023-04-30T12:38:18.721Z,6.67
2023-04-30T12:40:50.054Z,7.83
2023-04-30T12:43:20.690Z,16.03
2023-04-30T12:45:53.191Z,15.63
2023-04-30T12:48:24.713Z,5.50
2023-04-30T12:50:55.769Z,4.20
2023-04-30T12:53:25.356Z,5.67
2023-04-30T12:56:12.506Z,11.03
2023-04-30T12:58:45.726Z,6.13
2023-04-30T13:01:15.497Z,5.43
2023-04-30T13:03:44.645Z,8.03
2023-04-30T13:06:13.767Z,5.87
2023-04-30T13:08:57.209Z,5.67
2023-04-30T13:11:28.676Z,6.80
2023-04-30T13:13:59.132Z,7.30
2023-04-30T13:16:28.621Z,8.60
2023-04-30T13:18:58.206Z,4.60
2023-04-30T13:21:29.162Z,11.20
2023-04-30T13:23:59.736Z,12.77
2023-04-30T13:26:29.989Z,5.83
2023-04-30T13:29:00.713Z,5.90
2023-04-30T13:31:29.979Z,4.87
2023-04-30T13:33:58.853Z,3.77
2023-04-30T13:36:27.843Z,11.60
2023-04-30T13:38:57.064Z,8.27
2023-04-30T13:41:26.246Z,6.63
2023-04-30T13:43:55.148Z,4.37
2023-04-30T13:46:26.226Z,6.23
2023-04-30T13:48:55.460Z,5.57
2023-04-30T13:51:24.479Z,6.60
2023-04-30T13:53:53.439Z,4.60
2023-04-30T13:56:22.556Z,6.00
2023-04-30T13:58:51.617Z,4.30
2023-04-30T14:01:20.792Z,5.93
2023-04-30T14:03:51.307Z,7.10
2023-04-30T14:06:20.340Z,9.13
2023-04-30T14:08:49.359Z,9.90
2023-04-30T14:11:18.249Z,9.63
2023-04-30T14:13:47.482Z,8.77
2023-04-30T14:16:35.193Z,6.57
2023-04-30T14:19:05.704Z,7.27
2023-04-30T14:21:34.938Z,7.87
2023-04-30T14:24:03.994Z,4.50
2023-04-30T14:26:33.112Z,7.40
2023-04-30T14:29:02.265Z,6.57
2023-04-30T14:31:31.495Z,8.90
2023-04-30T14:34:01.158Z,17.53
2023-04-30T14:36:32.889Z,8.43
2023-04-30T14:39:04.087Z,6.47
2023-04-30T14:41:37.316Z,12.73
2023-04-30T14:44:07.000Z,24.77
2023-04-30T14:46:36.566Z,5.57
2023-04-30T14:49:06.432Z,5.53
2023-04-30T14:51:37.129Z,3.80
2023-04-30T14:54:24.938Z,4.47
2023-04-30T14:56:55.868Z,8.93
2023-04-30T14:59:25.133Z,8.03
2023-04-30T15:01:57.479Z,6.63
2023-04-30T15:04:27.549Z,6.73
2023-04-30T15:07:04.554Z,11.63
2023-04-30T15:09:35.008Z,9.13
2023-04-30T15:12:04.358Z,8.23
2023-04-30T15:14:33.825Z,6.43
2023-04-30T15:17:04.265Z,9.90
2023-04-30T15:19:34.120Z,4.17
2023-04-30T15:22:04.619Z,6.90
2023-04-30T15:24:34.523Z,10.30
2023-04-30T15:27:04.678Z,9.67
2023-04-30T15:29:34.309Z,8.77
2023-04-30T15:32:03.479Z,6.70
2023-04-30T15:34:32.829Z,11.20
2023-04-30T15:37:02.919Z,9.37
2023-04-30T15:39:35.605Z,7.67
2023-04-30T15:42:23.169Z,9.33
2023-04-30T15:44:52.870Z,6.90
2023-04-30T15:47:23.857Z,22.40
2023-04-30T15:49:53.735Z,18.17
2023-04-30T15:52:22.884Z,11.63
2023-04-30T15:54:54.115Z,15.70
2023-04-30T15:57:23.384Z,8.87
2023-04-30T15:59:52.305Z,8.67
2023-04-30T16:02:21.470Z,7.43
2023-04-30T16:04:50.387Z,19.27
2023-04-30T16:07:19.619Z,26.93
2023-04-30T16:09:49.599Z,20.53
2023-04-30T16:12:20.299Z,13.30
2023-04-30T16:14:50.007Z,18.43
2023-04-30T16:17:27.078Z,13.80
2023-04-30T16:19:57.398Z,11.50
2023-04-30T16:22:27.615Z,13.63
2023-04-30T16:24:56.592Z,21.50
2023-04-30T16:27:27.205Z,16.73
2023-04-30T16:29:56.394Z,20.53
2023-04-30T16:32:25.807Z,21.00
2023-04-30T16:34:54.847Z,14.43
2023-04-30T16:37:23.814Z,12.00
2023-04-30T16:39:52.923Z,13.97
2023-04-30T16:42:22.316Z,12.40
2023-04-30T16:44:53.158Z,12.93
2023-04-30T16:47:22.540Z,12.17
2023-04-30T16:49:51.683Z,13.97
2023-04-30T16:52:23.165Z,9.97
2023-04-30T16:54:53.226Z,24.53
2023-04-30T16:57:22.594Z,16.80
2023-04-30T16:59:53.404Z,12.33
2023-04-30T17:02:22.927Z,20.03
2023-04-30T17:04:52.649Z,17.33
2023-04-30T17:07:21.897Z,30.20
2023-04-30T17:09:50.782Z,33.87
2023-04-30T17:12:19.761Z,60.07
2023-04-30T17:14:48.912Z,40.90
2023-04-30T17:17:19.480Z,32.73
2023-04-30T17:19:48.470Z,23.43
2023-04-30T17:22:20.246Z,29.20
2023-04-30T17:24:49.493Z,19.00
2023-04-30T17:27:19.154Z,20.03
2023-04-30T17:30:11.137Z,36.97
2023-04-30T17:32:42.533Z,27.10
2023-04-30T17:35:11.757Z,24.20
2023-04-30T17:37:41.014Z,40.47
2023-04-30T17:40:19.192Z,66.47
2023-04-30T17:43:01.822Z,18.23
2023-04-30T17:45:35.533Z,22.00
2023-04-30T17:48:06.682Z,20.73
2023-04-30T17:50:36.163Z,33.33
2023-04-30T17:53:05.316Z,23.30
2023-04-30T17:55:34.477Z,34.60
2023-04-30T17:58:04.467Z,36.37
2023-04-30T18:00:34.995Z,32.70
2023-04-30T18:03:07.211Z,27.07
2023-04-30T18:05:36.636Z,33.10
2023-04-30T18:08:06.535Z,27.13
2023-04-30T18:10:42.002Z,38.77
2023-04-30T18:13:12.323Z,43.17
2023-04-30T18:15:45.937Z,52.33
2023-04-30T18:18:16.771Z,45.90
2023-04-30T18:20:46.127Z,47.20
2023-04-30T18:23:15.956Z,53.80
2023-04-30T18:25:45.074Z,41.83
2023-04-30T18:28:14.410Z,38.03
2023-04-30T18:30:43.452Z,49.80
2023-04-30T18:33:12.967Z,34.40
2023-04-30T18:35:46.825Z,66.80
2023-04-30T18:38:15.977Z,49.03
2023-04-30T18:40:44.901Z,38.90
2023-04-30T18:43:16.111Z,46.37
2023-04-30T18:45:45.197Z,67.97
2023-04-30T18:48:15.369Z,47.83
2023-04-30T18:50:45.640Z,38.50
2023-04-30T18:53:14.771Z,55.30
2023-04-30T18:55:44.202Z,50.17
2023-04-30T18:58:13.899Z,37.20
2023-04-30T19:00:43.746Z,36.00
2023-04-30T19:03:12.958Z,45.53
2023-04-30T19:05:42.812Z,42.77
2023-04-30T19:08:13.468Z,46.23
2023-04-30T19:10:42.550Z,31.73
2023-04-30T19:13:11.673Z,33.73
2023-04-30T19:15:44.580Z,26.43
2023-04-30T19:18:13.968Z,36.13
2023-04-30T19:20:43.104Z,42.40
2023-04-30T19:23:14.013Z,36.07
2023-04-30T19:25:42.971Z,25.63
2023-04-30T19:28:14.827Z,25.07
2023-04-30T19:30:44.081Z,28.33
2023-04-30T19:33:13.514Z,30.40
2023-04-30T19:35:49.928Z,30.87
2023-04-30T19:38:21.575Z,35.00
2023-04-30T19:40:52.398Z,33.60
2023-04-30T19:43:40.782Z,24.10
2023-04-30T19:46:10.424Z,40.20
2023-04-30T19:48:40.961Z,30.07
2023-04-30T19:51:11.188Z,29.70
2023-04-30T19:53:41.712Z,31.97
2023-04-30T19:56:11.093Z,29.40
2023-04-30T19:58:40.732Z,41.43
2023-04-30T20:01:09.836Z,34.60
2023-04-30T20:03:40.348Z,33.50
2023-04-30T20:06:11.228Z,36.20
2023-04-30T20:08:42.033Z,26.47
2023-04-30T20:11:11.790Z,25.90
2023-04-30T20:13:41.542Z,22.70
2023-04-30T20:16:12.756Z,24.07
2023-04-30T20:18:51.921Z,25.87
2023-04-30T20:21:21.679Z,35.43
2023-04-30T20:23:52.037Z,30.87
2023-04-30T20:26:21.821Z,38.93
2023-04-30T20:28:51.310Z,33.73
2023-04-30T20:31:21.518Z,38.47
2023-04-30T20:33:50.635Z,44.97
2023-04-30T20:36:20.496Z,34.70
2023-04-30T20:38:49.773Z,33.07
2023-04-30T20:41:20.254Z,30.57
2023-04-30T20:43:52.353Z,30.70
2023-04-30T20:46:25.412Z,26.50
2023-04-30T20:49:01.335Z,39.80
2023-04-30T20:51:31.801Z,28.27
2023-04-30T20:54:01.876Z,26.90
2023-04-30T20:56:32.920Z,38.40
2023-04-30T20:59:04.977Z,24.67
2023-04-30T21:01:38.317Z,30.07
2023-04-30T21:04:08.129Z,33.80
2023-04-30T21:06:37.339Z,26.90
2023-04-30T21:09:06.600Z,27.33
2023-04-30T21:11:37.236Z,31.23
2023-04-30T21:14:06.315Z,24.37
2023-04-30T21:16:35.947Z,30.30
2023-04-30T21:19:05.921Z,41.57
2023-04-30T21:21:35.566Z,32.60
2023-04-30T21:24:05.529Z,25.80
2023-04-30T21:26:36.781Z,28.13
2023-04-30T21:29:05.903Z,27.20
2023-04-30T21:31:35.404Z,27.93
2023-04-30T21:34:04.816Z,27.53
2023-04-30T21:36:35.575Z,30.53
2023-04-30T21:39:05.822Z,31.80
2023-04-30T21:41:38.240Z,33.43
2023-04-30T21:44:07.390Z,32.53
2023-04-30T21:46:37.786Z,28.40
2023-04-30T21:49:07.012Z,35.97
2023-04-30T21:51:36.643Z,34.80
2023-04-30T21:54:07.231Z,62.43
2023-04-30T21:56:38.198Z,41.23
2023-04-30T21:59:07.539Z,34.50
2023-04-30T22:01:36.543Z,30.30
2023-04-30T22:04:05.964Z,27.13
2023-04-30T22:06:35.201Z,53.73
2023-04-30T22:09:04.752Z,38.97
2023-04-30T22:11:33.713Z,30.40
2023-04-30T22:14:04.652Z,35.60
2023-04-30T22:16:33.853Z,36.43
2023-04-30T22:19:02.919Z,32.00
2023-04-30T22:21:32.599Z,27.67
2023-04-30T22:24:01.704Z,24.77
2023-04-30T22:26:30.926Z,24.70
2023-04-30T22:29:00.476Z,29.40
2023-04-30T22:31:31.230Z,27.70
2023-04-30T22:34:01.039Z,29.77
2023-04-30T22:36:30.049Z,34.50
2023-04-30T22:38:59.428Z,39.83
2023-04-30T22:41:28.892Z,34.37
2023-04-30T22:43:57.951Z,30.50
2023-04-30T22:46:27.186Z,28.57
2023-04-30T22:48:58.010Z,31.80
2023-04-30T22:51:28.031Z,37.53
2023-04-30T22:53:57.724Z,35.27
2023-04-30T22:56:26.842Z,34.90
2023-04-30T22:58:55.857Z,32.03
2023-04-30T23:01:25.090Z,27.60
2023-04-30T23:03:54.755Z,30.33
2023-04-30T23:06:25.530Z,28.93
2023-04-30T23:08:54.576Z,31.57
2023-04-30T23:11:23.929Z,38.63
2023-04-30T23:13:52.923Z,25.30
2023-04-30T23:16:21.786Z,24.03
2023-04-30T23:18:50.898Z,26.40
2023-04-30T23:21:19.993Z,24.50
2023-04-30T23:23:50.588Z,23.80
2023-04-30T23:26:20.115Z,23.70
2023-04-30T23:28:48.987Z,21.40
2023-04-30T23:31:18.414Z,23.07
2023-04-30T23:33:47.802Z,22.37
2023-04-30T23:36:16.875Z,24.53
2023-04-30T23:38:46.781Z,21.93
2023-04-30T23:41:17.389Z,21.60
2023-04-30T23:43:46.326Z,31.03
2023-04-30T23:46:16.656Z,28.67
2023-04-30T23:48:46.384Z,31.40
2023-04-30T23:51:15.530Z,25.03
2023-04-30T23:53:44.435Z,25.20
2023-04-30T23:56:13.433Z,25.83
2023-04-30T23:58:44.411Z,26.60
